Archival Weather

Republic

Farmingdale, New York (KFRG)

Report from: Saturday, January 27, 2024 4:53 PM EST
Current time: Monday, June 17, 2024 2:38 AM EDT

Current weather – Weather history – Daily summaries
Weather forecast

Temperature6.7°C (44.1°F)
Wind chill5.3°C (41.5°F)
Dew point2.2°C (36.0°F)
Winds 4 kts (2.1 m/s, 4.6 mph) Northeast (40°)
Visibility10 mi. (16.1 km)
Clouds Ceiling: Overcast 2,500 ft. (762 m)
Altimeter30.20 in.Hg (1023 mB)
Relative humidity73 %
Density altitude-1,216 ft. (-371 m)
Sea-level pressure102.3 kPa (1023 mB, 30.20 in.Hg)
Remarks Automated weather observing station without precipitation discriminator
Flight conditions Marginal Visual Meteorological Conditions
Raw dataKFRG 272153Z 04004KT 10SM OVC025 07/02 A3020 RMK AO1 SLP228 T00670022
An error has occurred. This application may no longer respond until reloaded. Reload 🗙